Terminal Aerodrome Forecast
Issued by NWS

Home | Current Version | Previous Version | Text Only | Print | Product List | Glossary On
Versions: 1 2 3 4 5 6 7 8 9 10 11 12 13 14 15 16 17 18 19 20 21
000
FTUS45 KBOI 241120
TAFJER
TAF
KJER 241120Z 2412/2512 24017KT P6SM VCSH OVC006
      TEMPO 2412/2414 5SM -SN BR
     FM241700 24010KT P6SM VCSH OVC006
     FM250000 22007KT P6SM OVC007=

USA.gov is the U.S. government's official web portal to all federal, state and local government web resources and services.